Wasilla Airport
PAWS : now visible

Airfield :











YOU CAN JOIN US ON...

 
LOGIN :

Register | Disclaimer

   EN    FR    IT 

 









Legend :    VFR   Marginal VFR   IFR   Intensive IFR   Very Intensive IFR
Visi :
Ceiling :
>= 8 km
>= 3000ft
5 to 8 km
1000 to 3000 ft
1500m to 5 km
500 to 1000 ft
800 to 1500m
200 to 500 ft
< 800m
< 200 ft
Symbols :   Thunderstorms  Fog  Heavy snow  Heavy precipitations  Wind > 20 kt






- Airport Elevation : 354 ft
- IATA code : IYS


PAWS - Wasilla

CURRENT METAR :
  • 171456Z AUTO 07010G16KT 9SM -SN BKN026 OVC031 M08/M11 A2989 RMK AO2 SLP132 P0000 60000 T10781106 58020 FZRANO

EXPIRED METARs :
  • 171356Z AUTO 06008KT 5SM -SN OVC020 M08/M12 A2991 RMK AO2 SLP139 P0000 T10831117 FZRANO
  • 171256Z AUTO 00000KT 6SM -SN BKN024 OVC035 M09/M13 A2995 RMK AO2 SLP149 P0000 T10891133 FZRANO
  • 171218Z AUTO 04006KT 9SM -SN SCT024 OVC032 M09/M12 A2995 RMK AO2 P0000 FZRANO

TAF N/A



MET'MAP, your aeronautical weather chart ! - Copyright ORBIFLY December 2007 - Disclaimer

ORBIFLY MET'MAP TEAM :

Programming & Development : Alexandra Zaïnal
Concept & original design : Baudouin d'Aumeries
Assistance for programming : Marc-Olivier Méhu
Technical & hardware support : Manuel Goepfert

Contact : metmap@orbifly.com




SOURCES & CREDITS :

   NOAA       Earth
Advisory